createdAt,value
2023-01-25T00:00:06.793Z,13.52
2023-01-25T00:02:54.990Z,14.02
2023-01-25T00:05:43.332Z,13.15
2023-01-25T00:08:31.540Z,12.85
2023-01-25T00:11:21.490Z,13.40
2023-01-25T00:14:11.645Z,13.05
2023-01-25T00:16:59.869Z,13.07
2023-01-25T00:19:48.062Z,13.98
2023-01-25T00:22:36.278Z,12.73
2023-01-25T00:25:24.450Z,14.05
2023-01-25T00:28:14.076Z,13.43
2023-01-25T00:31:02.994Z,14.13
2023-01-25T00:33:56.933Z,14.25
2023-01-25T00:36:46.033Z,13.30
2023-01-25T00:39:34.200Z,13.65
2023-01-25T00:42:23.354Z,13.68
2023-01-25T00:45:14.004Z,13.25
2023-01-25T00:48:02.204Z,12.68
2023-01-25T00:50:50.386Z,14.45
2023-01-25T00:53:38.915Z,15.93
2023-01-25T00:56:27.101Z,13.50
2023-01-25T00:59:15.793Z,13.75
2023-01-25T01:02:05.491Z,13.30
2023-01-25T01:04:56.547Z,13.38
2023-01-25T01:07:44.856Z,14.20
2023-01-25T01:10:33.018Z,15.23
2023-01-25T01:13:21.215Z,13.85
2023-01-25T01:16:12.324Z,11.73
2023-01-25T01:19:01.990Z,12.43
2023-01-25T01:21:50.151Z,12.75
2023-01-25T01:24:38.506Z,13.98
2023-01-25T01:27:26.738Z,12.60
2023-01-25T01:30:15.259Z,13.43
2023-01-25T01:33:03.496Z,10.88
2023-01-25T01:35:53.037Z,11.70
2023-01-25T01:38:41.374Z,11.65
2023-01-25T01:41:29.539Z,11.68
2023-01-25T01:44:20.262Z,12.55
2023-01-25T01:47:14.415Z,8.57
2023-01-25T01:50:07.200Z,13.40
2023-01-25T01:52:57.312Z,11.45
2023-01-25T01:55:45.521Z,11.23
2023-01-25T01:58:34.811Z,13.55
2023-01-25T02:01:23.058Z,11.20
2023-01-25T02:04:12.063Z,12.20
2023-01-25T02:07:06.804Z,13.30
2023-01-25T02:09:56.383Z,13.93
2023-01-25T02:12:45.639Z,14.43
2023-01-25T02:15:39.599Z,13.52
2023-01-25T02:18:27.905Z,13.50
2023-01-25T02:21:16.508Z,14.07
2023-01-25T02:24:10.143Z,14.00
2023-01-25T02:26:59.803Z,13.75
2023-01-25T02:29:48.674Z,14.63
2023-01-25T02:32:36.843Z,14.63
2023-01-25T02:35:37.726Z,14.68
2023-01-25T02:38:26.514Z,15.32
2023-01-25T02:41:19.384Z,15.52
2023-01-25T02:44:12.458Z,15.52
2023-01-25T02:47:00.938Z,16.85
2023-01-25T02:49:49.084Z,16.33
2023-01-25T02:52:37.656Z,15.40
2023-01-25T02:55:25.826Z,16.08
2023-01-25T02:58:14.013Z,15.43
2023-01-25T03:01:03.565Z,16.00
2023-01-25T03:03:51.818Z,15.90
2023-01-25T03:06:40.948Z,17.30
2023-01-25T03:09:29.128Z,16.83
2023-01-25T03:12:17.365Z,16.15
2023-01-25T03:15:07.014Z,17.20
2023-01-25T03:17:56.879Z,16.85
2023-01-25T03:20:45.058Z,17.75
2023-01-25T03:23:33.504Z,17.23
2023-01-25T03:26:23.933Z,17.27
2023-01-25T03:29:12.073Z,18.67
2023-01-25T03:32:00.369Z,19.00
2023-01-25T03:34:50.026Z,18.02
2023-01-25T03:37:38.217Z,17.85
2023-01-25T03:40:26.359Z,17.60
2023-01-25T03:43:14.588Z,19.23
2023-01-25T03:46:03.421Z,17.83
2023-01-25T03:48:51.612Z,17.35
2023-01-25T03:51:41.118Z,16.15
2023-01-25T03:54:29.285Z,16.83
2023-01-25T03:57:17.452Z,17.88
2023-01-25T04:00:06.808Z,17.88
2023-01-25T04:02:54.977Z,17.55
2023-01-25T04:05:43.680Z,16.80
2023-01-25T04:08:33.573Z,18.10
2023-01-25T04:11:21.727Z,16.88
2023-01-25T04:14:11.522Z,18.60
2023-01-25T04:16:59.748Z,47.90
2023-01-25T04:19:47.912Z,28.33
2023-01-25T04:22:36.123Z,26.33
2023-01-25T04:25:25.716Z,20.95
2023-01-25T04:28:13.883Z,20.58
2023-01-25T04:31:03.620Z,25.73
2023-01-25T04:33:51.911Z,16.65
2023-01-25T04:36:40.082Z,49.83
2023-01-25T04:39:28.230Z,68.75
2023-01-25T04:42:17.735Z,47.97
2023-01-25T04:45:07.331Z,26.63
2023-01-25T04:48:00.250Z,15.80
2023-01-25T04:50:48.532Z,13.80
2023-01-25T04:53:36.732Z,15.35
2023-01-25T04:56:25.842Z,16.15
2023-01-25T04:59:15.648Z,15.40
2023-01-25T05:02:03.902Z,14.32
2023-01-25T05:04:52.108Z,13.23
2023-01-25T05:07:40.429Z,13.32
2023-01-25T05:10:28.711Z,14.57
2023-01-25T05:13:16.911Z,12.93
2023-01-25T05:16:08.984Z,14.10
2023-01-25T05:18:57.410Z,13.98
2023-01-25T05:22:00.604Z,17.17
2023-01-25T05:24:49.434Z,17.42
2023-01-25T05:27:36.671Z,15.80
2023-01-25T05:30:24.835Z,18.38
2023-01-25T05:33:14.411Z,19.08
2023-01-25T05:36:02.577Z,16.85
2023-01-25T05:38:50.758Z,17.48
2023-01-25T05:41:38.905Z,17.50
2023-01-25T05:44:27.168Z,16.52
2023-01-25T05:47:17.340Z,16.55
2023-01-25T05:50:09.552Z,16.55
2023-01-25T05:52:57.807Z,17.45
2023-01-25T05:55:46.317Z,17.17
2023-01-25T05:58:34.536Z,16.40
2023-01-25T06:01:23.108Z,15.18
2023-01-25T06:04:15.334Z,18.10
2023-01-25T06:07:04.871Z,17.25
2023-01-25T06:09:53.088Z,17.33
2023-01-25T06:12:41.412Z,17.38
2023-01-25T06:15:29.622Z,17.10
2023-01-25T06:18:17.798Z,16.08
2023-01-25T06:21:06.387Z,14.73
2023-01-25T06:23:56.037Z,16.13
2023-01-25T06:26:44.250Z,16.70
2023-01-25T06:29:32.400Z,18.13
2023-01-25T06:32:20.658Z,18.55
2023-01-25T06:35:09.911Z,19.23
2023-01-25T06:37:58.430Z,19.25
2023-01-25T06:40:47.966Z,17.85
2023-01-25T06:43:36.442Z,18.15
2023-01-25T06:46:24.812Z,17.90
2023-01-25T06:49:13.284Z,17.20
2023-01-25T06:52:01.964Z,18.65
2023-01-25T06:54:50.158Z,19.50
2023-01-25T06:57:39.671Z,20.25
2023-01-25T07:00:27.920Z,19.30
2023-01-25T07:03:16.107Z,21.73
2023-01-25T07:06:06.441Z,19.98
2023-01-25T07:08:54.710Z,15.63
2023-01-25T07:11:43.000Z,21.63
2023-01-25T07:14:32.655Z,22.17
2023-01-25T07:17:20.935Z,22.02
2023-01-25T07:20:10.338Z,22.63
2023-01-25T07:23:02.047Z,21.90
2023-01-25T07:25:51.717Z,22.45
2023-01-25T07:28:39.890Z,22.33
2023-01-25T07:31:29.626Z,21.55
2023-01-25T07:34:17.841Z,23.85
2023-01-25T07:37:06.121Z,23.00
2023-01-25T07:39:58.152Z,23.52
2023-01-25T07:42:46.290Z,23.83
2023-01-25T07:45:34.433Z,24.00
2023-01-25T07:48:23.941Z,23.67
2023-01-25T07:51:27.069Z,25.50
2023-01-25T07:54:15.439Z,24.67
2023-01-25T07:57:03.705Z,23.35
2023-01-25T07:59:51.937Z,24.83
2023-01-25T08:02:40.103Z,28.10
2023-01-25T08:05:29.730Z,25.27
2023-01-25T08:08:17.983Z,25.75
2023-01-25T08:11:11.100Z,25.67
2023-01-25T08:14:01.895Z,24.40
2023-01-25T08:16:50.072Z,24.92
2023-01-25T08:19:38.615Z,24.98
2023-01-25T08:22:28.653Z,23.30
2023-01-25T08:25:17.026Z,22.20
2023-01-25T08:28:05.349Z,22.67
2023-01-25T08:30:57.460Z,23.95
2023-01-25T08:33:46.865Z,20.83
2023-01-25T08:36:35.323Z,20.27
2023-01-25T08:39:24.893Z,20.45
2023-01-25T08:42:13.080Z,19.85
2023-01-25T08:45:02.693Z,20.73
2023-01-25T08:47:50.906Z,21.02
2023-01-25T08:50:39.105Z,21.05
2023-01-25T08:53:29.169Z,22.52
2023-01-25T08:56:19.270Z,21.80
2023-01-25T08:59:07.900Z,21.42
2023-01-25T09:01:56.143Z,21.50
2023-01-25T09:04:44.352Z,20.75
2023-01-25T09:07:37.778Z,20.48
2023-01-25T09:10:26.076Z,22.63
2023-01-25T09:13:15.643Z,21.65
2023-01-25T09:16:05.438Z,21.05
2023-01-25T09:18:53.717Z,22.05
2023-01-25T09:21:42.112Z,19.77
2023-01-25T09:24:30.499Z,19.48
2023-01-25T09:27:18.766Z,18.98
2023-01-25T09:30:18.324Z,20.00
2023-01-25T09:33:07.087Z,17.65
2023-01-25T09:35:55.657Z,19.15
2023-01-25T09:38:43.854Z,20.40
2023-01-25T09:41:53.445Z,22.45
2023-01-25T09:45:05.056Z,25.02
2023-01-25T09:48:00.912Z,20.85
2023-01-25T09:51:09.029Z,19.73
2023-01-25T09:53:58.631Z,16.20
2023-01-25T09:56:51.625Z,25.17
2023-01-25T09:59:41.005Z,17.02
2023-01-25T10:02:41.220Z,17.00
2023-01-25T10:05:35.896Z,17.52
2023-01-25T10:08:30.711Z,16.83
2023-01-25T10:11:24.312Z,17.08
2023-01-25T10:14:16.104Z,16.75
2023-01-25T10:17:10.510Z,15.88
2023-01-25T10:20:10.373Z,16.00
2023-01-25T10:23:25.768Z,17.98
2023-01-25T10:26:17.685Z,15.18
2023-01-25T10:29:13.825Z,14.15
2023-01-25T10:32:12.197Z,14.82
2023-01-25T10:35:33.335Z,15.15
2023-01-25T10:38:30.994Z,15.13
2023-01-25T10:41:28.450Z,15.23
2023-01-25T10:44:25.797Z,16.05
2023-01-25T10:47:19.337Z,16.13
2023-01-25T10:50:08.221Z,16.75
2023-01-25T10:52:59.514Z,15.85
2023-01-25T10:58:46.194Z,14.82
2023-01-25T11:01:35.986Z,16.48
2023-01-25T11:04:31.245Z,17.30
2023-01-25T11:07:30.852Z,17.88
2023-01-25T11:10:30.712Z,18.88
2023-01-25T11:13:26.328Z,16.55
2023-01-25T11:16:32.807Z,17.40
2023-01-25T11:19:28.708Z,15.98
2023-01-25T11:22:25.941Z,15.82
2023-01-25T11:25:27.673Z,16.75
2023-01-25T11:28:21.544Z,16.30
2023-01-25T11:31:13.990Z,15.43
2023-01-25T11:34:02.270Z,16.70
2023-01-25T11:37:06.598Z,19.00
2023-01-25T11:40:03.513Z,18.90
2023-01-25T11:43:00.908Z,18.52
2023-01-25T11:46:25.065Z,18.17
2023-01-25T11:49:26.086Z,20.15
2023-01-25T11:52:26.362Z,19.73
2023-01-25T11:55:26.110Z,22.08
2023-01-25T11:58:33.540Z,21.33
2023-01-25T12:01:35.116Z,17.33
2023-01-25T12:04:53.719Z,15.48
2023-01-25T12:07:48.808Z,17.38
2023-01-25T12:10:46.418Z,15.63
2023-01-25T12:13:46.635Z,17.17
2023-01-25T12:16:49.679Z,17.30
2023-01-25T12:19:58.486Z,18.40
2023-01-25T12:23:09.772Z,17.23
2023-01-25T12:26:07.881Z,17.58
2023-01-25T12:29:05.273Z,17.58
2023-01-25T12:31:59.312Z,17.23
2023-01-25T12:34:51.218Z,16.92
2023-01-25T12:37:43.197Z,17.10
2023-01-25T12:40:41.925Z,17.30
2023-01-25T12:43:34.715Z,16.75
2023-01-25T12:46:27.613Z,15.02
2023-01-25T12:49:26.917Z,15.45
2023-01-25T12:52:23.191Z,14.95
2023-01-25T12:55:17.137Z,15.20
2023-01-25T12:58:11.734Z,15.02
2023-01-25T13:01:07.011Z,13.68
2023-01-25T13:04:11.183Z,14.55
2023-01-25T13:07:11.769Z,14.55
2023-01-25T13:10:04.449Z,16.08
2023-01-25T13:12:53.924Z,17.05
2023-01-25T13:15:43.657Z,15.98
2023-01-25T13:18:41.893Z,16.58
2023-01-25T13:21:47.039Z,16.27
2023-01-25T13:25:17.103Z,20.95
2023-01-25T13:28:41.470Z,21.08
2023-01-25T13:31:52.081Z,18.90
2023-01-25T13:37:59.747Z,18.13
2023-01-25T13:41:14.364Z,19.73
2023-01-25T13:44:26.204Z,17.13
2023-01-25T13:47:17.381Z,18.10
2023-01-25T13:50:18.701Z,17.70
2023-01-25T13:55:59.125Z,15.55
2023-01-25T13:58:48.726Z,18.00
2023-01-25T14:01:37.848Z,19.13
2023-01-25T14:04:26.370Z,18.83
2023-01-25T14:07:18.779Z,17.83
2023-01-25T14:10:11.659Z,16.70
2023-01-25T14:13:03.132Z,18.02
2023-01-25T14:15:56.559Z,18.23
2023-01-25T14:18:45.305Z,16.92
2023-01-25T14:21:33.498Z,18.90
2023-01-25T14:24:21.728Z,17.73
2023-01-25T14:27:15.095Z,17.85
2023-01-25T14:30:06.706Z,19.63
2023-01-25T14:32:56.825Z,21.60
2023-01-25T14:36:11.672Z,17.13
2023-01-25T14:38:53.812Z,18.48
2023-01-25T14:41:59.201Z,20.83
2023-01-25T14:44:48.921Z,20.35
2023-01-25T14:47:38.521Z,19.27
2023-01-25T14:50:33.233Z,19.40
2023-01-25T14:53:24.149Z,19.95
2023-01-25T14:56:33.920Z,25.50
2023-01-25T14:59:36.763Z,25.15
2023-01-25T15:02:28.664Z,20.10
2023-01-25T15:05:24.084Z,20.45
2023-01-25T15:08:17.372Z,18.70
2023-01-25T15:11:20.353Z,19.60
2023-01-25T15:14:19.803Z,20.67
2023-01-25T15:17:08.023Z,19.17
2023-01-25T15:19:56.232Z,19.27
2023-01-25T15:22:45.953Z,17.95
2023-01-25T15:25:34.464Z,18.70
2023-01-25T15:28:24.291Z,18.00
2023-01-25T15:31:18.093Z,17.13
2023-01-25T15:34:07.237Z,19.75
2023-01-25T15:36:55.450Z,22.50
2023-01-25T15:39:44.983Z,19.10
2023-01-25T15:42:33.159Z,18.33
2023-01-25T15:45:21.333Z,19.83
2023-01-25T15:48:14.422Z,19.50
2023-01-25T15:51:03.025Z,20.15
2023-01-25T15:53:51.421Z,22.30
2023-01-25T15:56:42.543Z,18.55
2023-01-25T15:59:30.878Z,18.15
2023-01-25T16:02:19.356Z,18.55
2023-01-25T16:05:07.886Z,19.35
2023-01-25T16:07:56.882Z,18.55
2023-01-25T16:10:45.382Z,18.15
2023-01-25T16:13:34.875Z,18.25
2023-01-25T16:16:25.514Z,31.25
2023-01-25T16:19:15.104Z,25.98
2023-01-25T16:22:03.290Z,21.15
2023-01-25T16:24:51.497Z,19.50
2023-01-25T16:27:39.974Z,19.52
2023-01-25T16:30:32.505Z,20.17
2023-01-25T16:33:24.087Z,20.85
2023-01-25T16:36:16.272Z,29.13
2023-01-25T16:39:10.147Z,24.33
2023-01-25T16:41:58.842Z,22.85
2023-01-25T16:44:48.437Z,27.60
2023-01-25T16:47:37.965Z,24.00
2023-01-25T16:50:26.622Z,23.05
2023-01-25T16:53:14.791Z,19.60
2023-01-25T16:56:02.958Z,21.60
2023-01-25T16:58:52.478Z,21.13
2023-01-25T17:01:41.481Z,32.55
2023-01-25T17:04:31.080Z,36.30
2023-01-25T17:07:19.266Z,32.42
2023-01-25T17:10:08.461Z,19.70
2023-01-25T17:12:56.798Z,20.73
2023-01-25T17:15:45.002Z,19.73
2023-01-25T17:18:33.170Z,20.83
2023-01-25T17:21:23.003Z,21.52
2023-01-25T17:24:14.317Z,19.13
2023-01-25T17:27:03.228Z,19.80
2023-01-25T17:29:51.390Z,19.25
2023-01-25T17:32:40.969Z,19.60
2023-01-25T17:35:29.172Z,19.23
2023-01-25T17:38:20.249Z,19.15
2023-01-25T17:41:10.934Z,17.92
2023-01-25T17:43:59.323Z,18.75
2023-01-25T17:46:48.132Z,17.85
2023-01-25T17:49:36.307Z,16.88
2023-01-25T17:52:24.487Z,17.55
2023-01-25T17:55:13.996Z,17.42
2023-01-25T17:58:02.208Z,17.58
2023-01-25T18:00:50.384Z,17.20
2023-01-25T18:03:38.566Z,18.90
2023-01-25T18:06:29.519Z,18.73
2023-01-25T18:09:18.746Z,17.98
2023-01-25T18:12:08.548Z,16.52
2023-01-25T18:14:56.688Z,17.67
2023-01-25T18:17:45.470Z,17.00
2023-01-25T18:20:34.118Z,16.17
2023-01-25T18:23:22.745Z,15.27
2023-01-25T18:26:18.175Z,14.00
2023-01-25T18:29:35.723Z,13.88
2023-01-25T18:32:23.957Z,14.55
2023-01-25T18:35:12.407Z,15.40
2023-01-25T18:38:01.222Z,13.05
2023-01-25T18:40:49.406Z,14.07
2023-01-25T18:43:37.774Z,13.38
2023-01-25T18:46:27.371Z,13.07
2023-01-25T18:49:15.606Z,12.63
2023-01-25T18:52:11.354Z,13.68
2023-01-25T18:55:00.169Z,14.02
2023-01-25T18:57:48.314Z,13.20
2023-01-25T19:00:36.509Z,12.82
2023-01-25T19:03:26.096Z,13.75
2023-01-25T19:06:15.338Z,13.77
2023-01-25T19:09:04.428Z,15.18
2023-01-25T19:11:52.919Z,14.23
2023-01-25T19:14:41.143Z,15.02
2023-01-25T19:17:29.358Z,17.85
2023-01-25T19:20:19.298Z,16.52
2023-01-25T19:23:08.443Z,13.90
2023-01-25T19:25:56.989Z,15.63
2023-01-25T19:28:46.325Z,13.85
2023-01-25T19:31:37.307Z,15.25
2023-01-25T19:34:25.815Z,18.23
2023-01-25T19:37:15.338Z,15.93
2023-01-25T19:40:03.545Z,14.30
2023-01-25T19:42:51.735Z,14.48
2023-01-25T19:45:39.931Z,14.07
2023-01-25T19:48:32.217Z,14.05
2023-01-25T19:51:21.953Z,14.00
2023-01-25T19:54:15.830Z,12.40
2023-01-25T19:57:04.142Z,12.20
2023-01-25T19:59:52.326Z,11.40
2023-01-25T20:02:40.566Z,10.77
2023-01-25T20:05:28.739Z,9.98
2023-01-25T20:08:16.938Z,10.93
2023-01-25T20:11:08.255Z,10.05
2023-01-25T20:13:58.891Z,11.07
2023-01-25T20:16:52.542Z,7.97
2023-01-25T20:19:40.690Z,9.32
2023-01-25T20:22:28.915Z,10.25
2023-01-25T20:25:17.216Z,9.60
2023-01-25T20:28:06.798Z,9.35
2023-01-25T20:30:55.364Z,10.75
2023-01-25T20:33:43.540Z,9.85
2023-01-25T20:36:32.961Z,9.00
2023-01-25T20:39:22.388Z,10.60
2023-01-25T20:42:11.137Z,7.65
2023-01-25T20:45:01.526Z,8.57
2023-01-25T20:47:49.693Z,9.02
2023-01-25T20:50:37.916Z,9.77
2023-01-25T20:53:26.138Z,9.30
2023-01-25T20:56:15.913Z,8.43
2023-01-25T20:59:04.419Z,9.50
2023-01-25T21:01:53.993Z,8.73
2023-01-25T21:04:42.264Z,8.45
2023-01-25T21:07:30.534Z,8.15
2023-01-25T21:10:19.310Z,7.45
2023-01-25T21:13:07.861Z,7.70
2023-01-25T21:16:00.496Z,6.38
2023-01-25T21:18:51.763Z,7.60
2023-01-25T21:24:28.082Z,5.75
2023-01-25T21:27:16.360Z,6.97
2023-01-25T21:30:05.031Z,7.32
2023-01-25T21:32:53.211Z,7.30
2023-01-25T21:35:42.674Z,8.35
2023-01-25T21:38:30.900Z,7.22
2023-01-25T21:41:20.761Z,7.53
2023-01-25T21:44:26.278Z,7.25
2023-01-25T21:47:29.526Z,7.28
2023-01-25T21:50:36.530Z,7.50
2023-01-25T21:53:26.027Z,7.65
2023-01-25T21:56:14.181Z,7.70
2023-01-25T21:59:02.368Z,7.47
2023-01-25T22:01:51.461Z,7.85
2023-01-25T22:04:39.691Z,8.00
2023-01-25T22:07:27.820Z,7.82
2023-01-25T22:10:18.371Z,8.70
2023-01-25T22:13:06.547Z,8.48
2023-01-25T22:15:58.832Z,7.45
2023-01-25T22:18:47.053Z,7.30
2023-01-25T22:21:35.275Z,7.88
2023-01-25T22:24:23.808Z,7.60
2023-01-25T22:27:32.977Z,8.30
2023-01-25T22:30:21.349Z,8.68
2023-01-25T22:33:09.522Z,8.25
2023-01-25T22:35:57.663Z,9.32
2023-01-25T22:38:45.902Z,9.40
2023-01-25T22:41:38.025Z,10.85
2023-01-25T22:44:27.566Z,10.65
2023-01-25T22:47:16.058Z,11.80
2023-01-25T22:50:05.204Z,10.85
2023-01-25T22:52:53.363Z,10.13
2023-01-25T22:55:42.363Z,9.73
2023-01-25T22:58:30.678Z,10.13
2023-01-25T23:01:22.112Z,11.35
2023-01-25T23:04:10.382Z,11.40
2023-01-25T23:07:02.969Z,11.02
2023-01-25T23:09:51.543Z,11.93
2023-01-25T23:12:39.857Z,11.00
2023-01-25T23:15:28.030Z,12.18
2023-01-25T23:18:34.978Z,11.73
2023-01-25T23:21:25.691Z,12.27
2023-01-25T23:24:13.952Z,8.52
2023-01-25T23:27:02.224Z,12.82
2023-01-25T23:29:51.746Z,11.73
2023-01-25T23:32:39.974Z,11.98
2023-01-25T23:35:29.467Z,12.90
2023-01-25T23:38:17.616Z,13.38
2023-01-25T23:41:06.092Z,13.48
2023-01-25T23:43:55.159Z,14.15
2023-01-25T23:46:43.447Z,12.38
2023-01-25T23:49:31.630Z,12.23
2023-01-25T23:52:21.143Z,13.88
2023-01-25T23:55:11.046Z,14.38
2023-01-25T23:57:59.218Z,11.98
